sensor_id;sensor_type;location;lat;lon;timestamp;pressure;altitude;pressure_sealevel;temperature;humidity
59170;BME280;52474;52.236;5.114;2023-01-27T00:00:18;102658.81;;;4.45;100.00
59170;BME280;52474;52.236;5.114;2023-01-27T00:02:44;102658.88;;;4.43;100.00
59170;BME280;52474;52.236;5.114;2023-01-27T00:05:12;102653.06;;;4.34;100.00
59170;BME280;52474;52.236;5.114;2023-01-27T00:07:38;102644.22;;;4.36;100.00
59170;BME280;52474;52.236;5.114;2023-01-27T00:10:04;102658.06;;;4.41;100.00
59170;BME280;52474;52.236;5.114;2023-01-27T00:12:30;102640.81;;;4.33;100.00
59170;BME280;52474;52.236;5.114;2023-01-27T00:15:15;102651.19;;;4.37;100.00
59170;BME280;52474;52.236;5.114;2023-01-27T00:17:41;102642.47;;;4.37;100.00
59170;BME280;52474;52.236;5.114;2023-01-27T00:20:08;102620.09;;;4.25;100.00
59170;BME280;52474;52.236;5.114;2023-01-27T00:22:35;102647.69;;;4.38;100.00
59170;BME280;52474;52.236;5.114;2023-01-27T00:25:19;102646.03;;;4.34;100.00
59170;BME280;52474;52.236;5.114;2023-01-27T00:27:45;102632.31;;;4.26;100.00
59170;BME280;52474;52.236;5.114;2023-01-27T00:30:11;102646.13;;;4.31;100.00
59170;BME280;52474;52.236;5.114;2023-01-27T00:32:39;102644.31;;;4.33;100.00
59170;BME280;52474;52.236;5.114;2023-01-27T00:35:23;102640.19;;;4.26;100.00
59170;BME280;52474;52.236;5.114;2023-01-27T00:37:49;102643.59;;;4.28;100.00
59170;BME280;52474;52.236;5.114;2023-01-27T00:40:16;102641.97;;;4.24;100.00
59170;BME280;52474;52.236;5.114;2023-01-27T00:42:42;102660.28;;;4.25;100.00
59170;BME280;52474;52.236;5.114;2023-01-27T00:45:08;102652.41;;;4.25;100.00
59170;BME280;52474;52.236;5.114;2023-01-27T00:47:53;102654.19;;;4.25;100.00
59170;BME280;52474;52.236;5.114;2023-01-27T00:50:19;102654.25;;;4.23;100.00
59170;BME280;52474;52.236;5.114;2023-01-27T00:52:45;102669.16;;;4.21;100.00
59170;BME280;52474;52.236;5.114;2023-01-27T00:55:12;102658.69;;;4.20;100.00
59170;BME280;52474;52.236;5.114;2023-01-27T00:57:40;102656.91;;;4.22;100.00
59170;BME280;52474;52.236;5.114;2023-01-27T01:00:06;102660.47;;;4.19;100.00
59170;BME280;52474;52.236;5.114;2023-01-27T01:02:34;102636.44;;;4.03;100.00
59170;BME280;52474;52.236;5.114;2023-01-27T01:05:00;102646.78;;;4.09;100.00
59170;BME280;52474;52.236;5.114;2023-01-27T01:07:27;102657.88;;;4.18;100.00
59170;BME280;52474;52.236;5.114;2023-01-27T01:09:53;102661.44;;;4.17;100.00
59170;BME280;52474;52.236;5.114;2023-01-27T01:12:20;102640.16;;;3.96;100.00
59170;BME280;52474;52.236;5.114;2023-01-27T01:14:48;102665.09;;;4.11;100.00
59170;BME280;52474;52.236;5.114;2023-01-27T01:17:14;102681.72;;;4.10;100.00
59170;BME280;52474;52.236;5.114;2023-01-27T01:19:40;102670.41;;;4.08;100.00
59170;BME280;52474;52.236;5.114;2023-01-27T01:22:05;102675.63;;;4.09;100.00
59170;BME280;52474;52.236;5.114;2023-01-27T01:24:31;102670.38;;;4.09;100.00
59170;BME280;52474;52.236;5.114;2023-01-27T01:26:57;102660.09;;;4.02;100.00
59170;BME280;52474;52.236;5.114;2023-01-27T01:29:22;102672.16;;;4.07;100.00
59170;BME280;52474;52.236;5.114;2023-01-27T01:31:51;102668.59;;;4.10;100.00
59170;BME280;52474;52.236;5.114;2023-01-27T01:34:16;102660.25;;;3.96;100.00
59170;BME280;52474;52.236;5.114;2023-01-27T01:36:42;102673.13;;;4.05;100.00
59170;BME280;52474;52.236;5.114;2023-01-27T01:39:08;102670.47;;;4.06;100.00
59170;BME280;52474;52.236;5.114;2023-01-27T01:41:34;102676.59;;;4.05;100.00
59170;BME280;52474;52.236;5.114;2023-01-27T01:44:23;102676.69;;;4.02;100.00
59170;BME280;52474;52.236;5.114;2023-01-27T01:46:49;102671.41;;;4.04;100.00
59170;BME280;52474;52.236;5.114;2023-01-27T01:49:17;102671.41;;;4.04;100.00
59170;BME280;52474;52.236;5.114;2023-01-27T01:51:47;102674.91;;;4.03;100.00
59170;BME280;52474;52.236;5.114;2023-01-27T01:54:24;102680.97;;;4.05;100.00
59170;BME280;52474;52.236;5.114;2023-01-27T01:56:56;102678.50;;;4.00;100.00
59170;BME280;52474;52.236;5.114;2023-01-27T01:59:27;102691.47;;;4.05;100.00
59170;BME280;52474;52.236;5.114;2023-01-27T02:01:56;102642.31;;;3.82;100.00
59170;BME280;52474;52.236;5.114;2023-01-27T02:04:27;102679.31;;;4.02;100.00
59170;BME280;52474;52.236;5.114;2023-01-27T02:07:06;102681.97;;;4.01;100.00
59170;BME280;52474;52.236;5.114;2023-01-27T02:09:33;102681.09;;;4.00;100.00
59170;BME280;52474;52.236;5.114;2023-01-27T02:11:59;102688.97;;;4.00;100.00
59170;BME280;52474;52.236;5.114;2023-01-27T02:14:25;102689.81;;;4.01;100.00
59170;BME280;52474;52.236;5.114;2023-01-27T02:16:52;102683.84;;;3.96;100.00
59170;BME280;52474;52.236;5.114;2023-01-27T02:28:00;102695.34;;;3.92;100.00
59170;BME280;52474;52.236;5.114;2023-01-27T02:30:26;102684.19;;;3.83;100.00
59170;BME280;52474;52.236;5.114;2023-01-27T02:32:52;102694.56;;;3.88;100.00
59170;BME280;52474;52.236;5.114;2023-01-27T02:35:23;102687.72;;;3.84;100.00
59170;BME280;52474;52.236;5.114;2023-01-27T02:37:51;102694.69;;;3.83;100.00
59170;BME280;52474;52.236;5.114;2023-01-27T02:40:17;102694.78;;;3.80;100.00
59170;BME280;52474;52.236;5.114;2023-01-27T02:42:43;102700.94;;;3.79;100.00
59170;BME280;52474;52.236;5.114;2023-01-27T02:45:10;102705.44;;;3.74;100.00
59170;BME280;52474;52.236;5.114;2023-01-27T02:47:35;102697.59;;;3.73;100.00
59170;BME280;52474;52.236;5.114;2023-01-27T02:50:01;102701.16;;;3.70;100.00
59170;BME280;52474;52.236;5.114;2023-01-27T02:52:27;102702.13;;;3.68;100.00
59170;BME280;52474;52.236;5.114;2023-01-27T02:54:53;102692.81;;;3.56;100.00
59170;BME280;52474;52.236;5.114;2023-01-27T02:57:19;102697.09;;;3.58;100.00
59170;BME280;52474;52.236;5.114;2023-01-27T02:59:58;102695.44;;;3.56;100.00
59170;BME280;52474;52.236;5.114;2023-01-27T03:02:24;102699.00;;;3.53;100.00
59170;BME280;52474;52.236;5.114;2023-01-27T03:04:55;102721.50;;;3.60;100.00
59170;BME280;52474;52.236;5.114;2023-01-27T03:07:21;102703.47;;;3.50;100.00
59170;BME280;52474;52.236;5.114;2023-01-27T03:09:46;102716.50;;;3.51;100.00
59170;BME280;52474;52.236;5.114;2023-01-27T03:12:12;102726.25;;;3.46;100.00
59170;BME280;52474;52.236;5.114;2023-01-27T03:14:44;102727.22;;;3.42;100.00
59170;BME280;52474;52.236;5.114;2023-01-27T03:17:28;102724.66;;;3.40;100.00
59170;BME280;52474;52.236;5.114;2023-01-27T03:20:13;102732.50;;;3.40;100.00
59170;BME280;52474;52.236;5.114;2023-01-27T03:22:39;102719.50;;;3.37;100.00
59170;BME280;52474;52.236;5.114;2023-01-27T03:25:05;102723.00;;;3.36;100.00
59170;BME280;52474;52.236;5.114;2023-01-27T03:27:31;102716.25;;;3.28;100.00
59170;BME280;52474;52.236;5.114;2023-01-27T03:30:16;102724.09;;;3.28;100.00
59170;BME280;52474;52.236;5.114;2023-01-27T03:32:51;102716.25;;;3.26;100.00
59170;BME280;52474;52.236;5.114;2023-01-27T03:35:49;102725.81;;;3.27;100.00
59170;BME280;52474;52.236;5.114;2023-01-27T03:38:35;102730.28;;;3.25;100.00
59170;BME280;52474;52.236;5.114;2023-01-27T03:41:20;102731.06;;;3.27;100.00
59170;BME280;52474;52.236;5.114;2023-01-27T03:44:04;102729.25;;;3.31;100.00
59170;BME280;52474;52.236;5.114;2023-01-27T03:46:48;102723.59;;;3.12;100.00
59170;BME280;52474;52.236;5.114;2023-01-27T03:49:14;102739.06;;;3.22;100.00
59170;BME280;52474;52.236;5.114;2023-01-27T03:51:40;102755.53;;;3.28;100.00
59170;BME280;52474;52.236;5.114;2023-01-27T03:54:05;102736.56;;;3.18;100.00
59170;BME280;52474;52.236;5.114;2023-01-27T03:56:31;102752.06;;;3.26;100.00
59170;BME280;52474;52.236;5.114;2023-01-27T03:58:56;102738.28;;;3.17;100.00
59170;BME280;52474;52.236;5.114;2023-01-27T04:01:23;102748.53;;;3.27;100.00
59170;BME280;52474;52.236;5.114;2023-01-27T04:03:49;102761.63;;;3.27;100.00
59170;BME280;52474;52.236;5.114;2023-01-27T04:06:37;102776.50;;;3.26;100.00
59170;BME280;52474;52.236;5.114;2023-01-27T04:09:32;102737.66;;;3.08;100.00
59170;BME280;52474;52.236;5.114;2023-01-27T04:12:01;102735.00;;;3.09;100.00
59170;BME280;52474;52.236;5.114;2023-01-27T04:14:30;102772.97;;;3.27;100.00
59170;BME280;52474;52.236;5.114;2023-01-27T04:17:02;102754.88;;;3.18;100.00
59170;BME280;52474;52.236;5.114;2023-01-27T04:19:28;102765.94;;;3.29;100.00
59170;BME280;52474;52.236;5.114;2023-01-27T04:21:54;102764.16;;;3.31;100.00
59170;BME280;52474;52.236;5.114;2023-01-27T04:24:20;102753.88;;;3.23;100.00
59170;BME280;52474;52.236;5.114;2023-01-27T04:26:51;102770.28;;;3.30;100.00
59170;BME280;52474;52.236;5.114;2023-01-27T04:29:18;102765.09;;;3.29;100.00
59170;BME280;52474;52.236;5.114;2023-01-27T04:31:44;102765.06;;;3.30;100.00
59170;BME280;52474;52.236;5.114;2023-01-27T04:34:11;102758.19;;;3.25;100.00
59170;BME280;52474;52.236;5.114;2023-01-27T04:36:38;102760.88;;;3.21;100.00
59170;BME280;52474;52.236;5.114;2023-01-27T04:39:04;102772.84;;;3.32;100.00
59170;BME280;52474;52.236;5.114;2023-01-27T04:41:29;102770.13;;;3.36;100.00
59170;BME280;52474;52.236;5.114;2023-01-27T04:43:55;102758.16;;;3.26;100.00
59170;BME280;52474;52.236;5.114;2023-01-27T04:46:21;102761.44;;;3.34;100.00
59170;BME280;52474;52.236;5.114;2023-01-27T04:48:47;102773.66;;;3.35;100.00
59170;BME280;52474;52.236;5.114;2023-01-27T04:51:12;102771.91;;;3.34;100.00
59170;BME280;52474;52.236;5.114;2023-01-27T04:53:38;102750.47;;;3.20;100.00
59170;BME280;52474;52.236;5.114;2023-01-27T04:56:17;102771.03;;;3.35;100.00
59170;BME280;52474;52.236;5.114;2023-01-27T04:58:45;102775.25;;;3.41;100.00
59170;BME280;52474;52.236;5.114;2023-01-27T05:01:10;102783.09;;;3.42;100.00
59170;BME280;52474;52.236;5.114;2023-01-27T05:03:36;102764.88;;;3.38;100.00
59170;BME280;52474;52.236;5.114;2023-01-27T05:06:02;102726.19;;;3.13;100.00
59170;BME280;52474;52.236;5.114;2023-01-27T05:08:29;102773.41;;;3.44;100.00
59170;BME280;52474;52.236;5.114;2023-01-27T05:10:55;102781.34;;;3.43;100.00
59170;BME280;52474;52.236;5.114;2023-01-27T05:13:20;102782.19;;;3.43;100.00
59170;BME280;52474;52.236;5.114;2023-01-27T05:15:46;102788.34;;;3.42;100.00
59170;BME280;52474;52.236;5.114;2023-01-27T05:18:13;102792.66;;;3.43;100.00
59170;BME280;52474;52.236;5.114;2023-01-27T05:20:38;102768.44;;;3.34;100.00
59170;BME280;52474;52.236;5.114;2023-01-27T05:23:04;102784.03;;;3.40;100.00
59170;BME280;52474;52.236;5.114;2023-01-27T05:25:48;102790.03;;;3.43;100.00
59170;BME280;52474;52.236;5.114;2023-01-27T05:28:14;102782.28;;;3.40;100.00
59170;BME280;52474;52.236;5.114;2023-01-27T05:30:39;102776.31;;;3.34;100.00
59170;BME280;52474;52.236;5.114;2023-01-27T05:33:05;102780.72;;;3.32;100.00
59170;BME280;52474;52.236;5.114;2023-01-27T05:35:33;102793.56;;;3.42;100.00
59170;BME280;52474;52.236;5.114;2023-01-27T05:37:59;102791.13;;;3.35;100.00
59170;BME280;52474;52.236;5.114;2023-01-27T05:40:24;102816.22;;;3.45;100.00
59170;BME280;52474;52.236;5.114;2023-01-27T05:42:51;102801.44;;;3.42;100.00
59170;BME280;52474;52.236;5.114;2023-01-27T05:45:17;102821.56;;;3.39;100.00
59170;BME280;52474;52.236;5.114;2023-01-27T05:47:45;102802.56;;;3.31;100.00
59170;BME280;52474;52.236;5.114;2023-01-27T05:50:12;102808.78;;;3.27;100.00
59170;BME280;52474;52.236;5.114;2023-01-27T05:52:38;102795.72;;;3.25;100.00
59170;BME280;52474;52.236;5.114;2023-01-27T05:55:04;102829.41;;;3.40;100.00
59170;BME280;52474;52.236;5.114;2023-01-27T05:57:29;102832.03;;;3.40;100.00
59170;BME280;52474;52.236;5.114;2023-01-27T05:59:55;102822.59;;;3.33;100.00
59170;BME280;52474;52.236;5.114;2023-01-27T06:02:21;102811.47;;;3.23;100.00
59170;BME280;52474;52.236;5.114;2023-01-27T06:04:46;102827.84;;;3.33;100.00
59170;BME280;52474;52.236;5.114;2023-01-27T06:07:12;102826.16;;;3.31;100.00
59170;BME280;52474;52.236;5.114;2023-01-27T06:09:38;102830.47;;;3.32;100.00
59170;BME280;52474;52.236;5.114;2023-01-27T06:12:04;102810.63;;;3.21;100.00
59170;BME280;52474;52.236;5.114;2023-01-27T06:14:29;102828.78;;;3.29;100.00
59170;BME280;52474;52.236;5.114;2023-01-27T06:16:55;102834.00;;;3.31;100.00
59170;BME280;52474;52.236;5.114;2023-01-27T06:19:21;102822.94;;;3.18;100.00
59170;BME280;52474;52.236;5.114;2023-01-27T06:21:46;102835.88;;;3.24;100.00
59170;BME280;52474;52.236;5.114;2023-01-27T06:24:12;102820.44;;;3.13;100.00
59170;BME280;52474;52.236;5.114;2023-01-27T06:26:38;102835.13;;;3.19;100.00
59170;BME280;52474;52.236;5.114;2023-01-27T06:29:03;102781.84;;;2.83;100.00
59170;BME280;52474;52.236;5.114;2023-01-27T06:31:29;102840.47;;;3.14;100.00
59170;BME280;52474;52.236;5.114;2023-01-27T06:33:54;102855.34;;;3.12;100.00
59170;BME280;52474;52.236;5.114;2023-01-27T06:36:21;102832.88;;;3.02;100.00
59170;BME280;52474;52.236;5.114;2023-01-27T06:38:47;102845.88;;;3.07;100.00
59170;BME280;52474;52.236;5.114;2023-01-27T06:41:14;102828.56;;;3.01;100.00
59170;BME280;52474;52.236;5.114;2023-01-27T06:43:39;102855.47;;;3.08;100.00
59170;BME280;52474;52.236;5.114;2023-01-27T06:46:05;102846.81;;;3.04;100.00
59170;BME280;52474;52.236;5.114;2023-01-27T06:48:31;102841.59;;;3.03;100.00
59170;BME280;52474;52.236;5.114;2023-01-27T06:50:57;102846.88;;;3.01;100.00
59170;BME280;52474;52.236;5.114;2023-01-27T06:53:23;102832.06;;;3.00;100.00
59170;BME280;52474;52.236;5.114;2023-01-27T06:55:55;102833.03;;;2.96;100.00
59170;BME280;52474;52.236;5.114;2023-01-27T06:58:21;102844.34;;;2.96;100.00
59170;BME280;52474;52.236;5.114;2023-01-27T07:00:47;102825.38;;;2.87;100.00
59170;BME280;52474;52.236;5.114;2023-01-27T07:03:12;102840.03;;;2.95;100.00
59170;BME280;52474;52.236;5.114;2023-01-27T07:05:39;102837.47;;;2.92;100.00
59170;BME280;52474;52.236;5.114;2023-01-27T07:08:18;102843.53;;;2.93;100.00
59170;BME280;52474;52.236;5.114;2023-01-27T07:11:32;102798.81;;;2.63;100.00
59170;BME280;52474;52.236;5.114;2023-01-27T07:13:58;102846.22;;;2.90;100.00
59170;BME280;52474;52.236;5.114;2023-01-27T07:16:23;102839.50;;;2.78;100.00
59170;BME280;52474;52.236;5.114;2023-01-27T07:18:49;102851.66;;;2.80;100.00
59170;BME280;52474;52.236;5.114;2023-01-27T07:21:15;102861.16;;;2.86;100.00
59170;BME280;52474;52.236;5.114;2023-01-27T07:23:40;102858.59;;;2.83;100.00
59170;BME280;52474;52.236;5.114;2023-01-27T07:26:06;102873.47;;;2.81;100.00
59170;BME280;52474;52.236;5.114;2023-01-27T07:28:32;102876.03;;;2.84;100.00
59170;BME280;52474;52.236;5.114;2023-01-27T07:31:02;102870.94;;;2.76;100.00
59170;BME280;52474;52.236;5.114;2023-01-27T07:33:27;102878.63;;;2.86;100.00
59170;BME280;52474;52.236;5.114;2023-01-27T07:35:53;102876.78;;;2.89;100.00
59170;BME280;52474;52.236;5.114;2023-01-27T07:38:20;102880.31;;;2.87;100.00
59170;BME280;52474;52.236;5.114;2023-01-27T07:40:45;102871.78;;;2.78;100.00
59170;BME280;52474;52.236;5.114;2023-01-27T07:43:11;102890.72;;;2.90;100.00
59170;BME280;52474;52.236;5.114;2023-01-27T07:45:39;102891.78;;;2.81;100.00
59170;BME280;52474;52.236;5.114;2023-01-27T07:48:06;102894.25;;;2.89;100.00
59170;BME280;52474;52.236;5.114;2023-01-27T07:50:33;102894.19;;;2.90;100.00
59170;BME280;52474;52.236;5.114;2023-01-27T07:53:00;102899.41;;;2.93;100.00
59170;BME280;52474;52.236;5.114;2023-01-27T07:55:27;102901.19;;;2.90;100.00
59170;BME280;52474;52.236;5.114;2023-01-27T07:57:53;102891.75;;;2.83;100.00
59170;BME280;52474;52.236;5.114;2023-01-27T08:00:20;102885.50;;;2.90;100.00
59170;BME280;52474;52.236;5.114;2023-01-27T08:02:50;102898.47;;;2.96;100.00
59170;BME280;52474;52.236;5.114;2023-01-27T08:05:33;102862.25;;;2.74;100.00
59170;BME280;52474;52.236;5.114;2023-01-27T08:08:29;102882.75;;;2.96;100.00
59170;BME280;52474;52.236;5.114;2023-01-27T08:10:58;102895.63;;;3.05;100.00
59170;BME280;52474;52.236;5.114;2023-01-27T08:13:24;102895.59;;;3.08;100.00
59170;BME280;52474;52.236;5.114;2023-01-27T08:15:55;102894.78;;;3.05;100.00
59170;BME280;52474;52.236;5.114;2023-01-27T08:18:21;102902.47;;;3.12;100.00
59170;BME280;52474;52.236;5.114;2023-01-27T08:20:47;102883.38;;;3.09;100.00
59170;BME280;52474;52.236;5.114;2023-01-27T08:23:12;102903.28;;;3.16;100.00
59170;BME280;52474;52.236;5.114;2023-01-27T08:25:38;102895.59;;;3.08;100.00
59170;BME280;52474;52.236;5.114;2023-01-27T08:28:04;102905.66;;;3.27;100.00
59170;BME280;52474;52.236;5.114;2023-01-27T08:30:29;102893.59;;;3.19;100.00
59170;BME280;52474;52.236;5.114;2023-01-27T08:32:55;102896.94;;;3.28;100.00
59170;BME280;52474;52.236;5.114;2023-01-27T08:35:21;102888.91;;;3.34;100.00
59170;BME280;52474;52.236;5.114;2023-01-27T08:37:47;102899.88;;;3.51;100.00
59170;BME280;52474;52.236;5.114;2023-01-27T08:40:13;102898.94;;;3.54;100.00
59170;BME280;52474;52.236;5.114;2023-01-27T08:42:39;102898.91;;;3.93;100.00
59170;BME280;52474;52.236;5.114;2023-01-27T08:45:05;102874.88;;;4.09;100.00
59170;BME280;52474;52.236;5.114;2023-01-27T08:47:30;102895.22;;;4.01;100.00
59170;BME280;52474;52.236;5.114;2023-01-27T08:49:56;102898.00;;;3.58;100.00
59170;BME280;52474;52.236;5.114;2023-01-27T08:52:22;102892.53;;;3.28;100.00
59170;BME280;52474;52.236;5.114;2023-01-27T08:54:48;102896.09;;;3.26;100.00
59170;BME280;52474;52.236;5.114;2023-01-27T08:57:13;102912.56;;;3.31;100.00
59170;BME280;52474;52.236;5.114;2023-01-27T08:59:39;102919.31;;;3.41;100.00
59170;BME280;52474;52.236;5.114;2023-01-27T09:02:05;102919.97;;;3.90;100.00
59170;BME280;52474;52.236;5.114;2023-01-27T09:04:31;102925.56;;;4.44;100.00
59170;BME280;52474;52.236;5.114;2023-01-27T09:06:56;102895.06;;;4.40;100.00
59170;BME280;52474;52.236;5.114;2023-01-27T09:09:25;102911.22;;;4.58;100.00
59170;BME280;52474;52.236;5.114;2023-01-27T09:11:51;102905.78;;;4.65;100.00
59170;BME280;52474;52.236;5.114;2023-01-27T09:14:16;102907.09;;;4.15;100.00
59170;BME280;52474;52.236;5.114;2023-01-27T09:16:43;102921.00;;;3.82;100.00
59170;BME280;52474;52.236;5.114;2023-01-27T09:19:12;102921.59;;;3.56;100.00
59170;BME280;52474;52.236;5.114;2023-01-27T09:21:38;102921.84;;;3.46;100.00
59170;BME280;52474;52.236;5.114;2023-01-27T09:24:03;102919.91;;;3.54;100.00
59170;BME280;52474;52.236;5.114;2023-01-27T09:26:29;102918.53;;;4.12;100.00
59170;BME280;52474;52.236;5.114;2023-01-27T09:28:55;102912.28;;;4.83;100.00
59170;BME280;52474;52.236;5.114;2023-01-27T09:31:20;102934.25;;;5.40;100.00
59170;BME280;52474;52.236;5.114;2023-01-27T09:33:46;102926.03;;;5.51;100.00
59170;BME280;52474;52.236;5.114;2023-01-27T09:36:16;102932.81;;;5.30;100.00
59170;BME280;52474;52.236;5.114;2023-01-27T09:38:59;102924.59;;;4.80;100.00
59170;BME280;52474;52.236;5.114;2023-01-27T09:41:48;102934.66;;;4.65;100.00
59170;BME280;52474;52.236;5.114;2023-01-27T09:44:48;102935.66;;;4.25;100.00
59170;BME280;52474;52.236;5.114;2023-01-27T09:53:11;102920.50;;;4.04;100.00
59170;BME280;52474;52.236;5.114;2023-01-27T09:55:54;102921.81;;;4.20;100.00
59170;BME280;52474;52.236;5.114;2023-01-27T10:03:29;102930.22;;;3.99;100.00
59170;BME280;52474;52.236;5.114;2023-01-27T10:14:46;102910.97;;;15.45;100.00
59170;BME280;52474;52.236;5.114;2023-01-27T10:17:29;102910.66;;;15.98;100.00
59170;BME280;52474;52.236;5.114;2023-01-27T10:20:23;102923.72;;;17.17;100.00
59170;BME280;52474;52.236;5.114;2023-01-27T10:23:02;102924.97;;;16.79;98.32
59170;BME280;52474;52.236;5.114;2023-01-27T10:25:43;102927.34;;;18.35;93.40
59170;BME280;52474;52.236;5.114;2023-01-27T10:28:23;102935.41;;;13.86;98.36
59170;BME280;52474;52.236;5.114;2023-01-27T10:30:58;102932.47;;;15.44;100.00
59170;BME280;52474;52.236;5.114;2023-01-27T10:36:55;102950.34;;;11.05;100.00
59170;BME280;52474;52.236;5.114;2023-01-27T10:39:04;102944.66;;;9.91;100.00
59170;BME280;52474;52.236;5.114;2023-01-27T10:41:47;102934.09;;;14.18;100.00
59170;BME280;52474;52.236;5.114;2023-01-27T10:50:27;102938.09;;;7.13;100.00
59170;BME280;52474;52.236;5.114;2023-01-27T10:53:03;102935.47;;;6.64;100.00
59170;BME280;52474;52.236;5.114;2023-01-27T10:55:37;102939.44;;;6.26;100.00
59170;BME280;52474;52.236;5.114;2023-01-27T10:58:12;102936.41;;;6.12;100.00
59170;BME280;52474;52.236;5.114;2023-01-27T11:00:49;102928.09;;;5.97;100.00
59170;BME280;52474;52.236;5.114;2023-01-27T11:03:27;102932.41;;;6.00;100.00
59170;BME280;52474;52.236;5.114;2023-01-27T11:05:58;102941.47;;;5.90;100.00
59170;BME280;52474;52.236;5.114;2023-01-27T11:08:32;102921.56;;;5.54;100.00
59170;BME280;52474;52.236;5.114;2023-01-27T11:11:04;102934.72;;;5.54;100.00
59170;BME280;52474;52.236;5.114;2023-01-27T11:13:53;102930.75;;;5.69;100.00
59170;BME280;52474;52.236;5.114;2023-01-27T11:16:32;102937.66;;;5.72;100.00
59170;BME280;52474;52.236;5.114;2023-01-27T11:19:09;102929.56;;;5.78;100.00
59170;BME280;52474;52.236;5.114;2023-01-27T11:21:36;102931.63;;;5.68;100.00
59170;BME280;52474;52.236;5.114;2023-01-27T11:24:31;102936.75;;;5.45;100.00
59170;BME280;52474;52.236;5.114;2023-01-27T11:27:26;102932.22;;;5.20;100.00
59170;BME280;52474;52.236;5.114;2023-01-27T11:29:54;102939.16;;;4.91;100.00
59170;BME280;52474;52.236;5.114;2023-01-27T11:35:12;102925.97;;;4.62;100.00
59170;BME280;52474;52.236;5.114;2023-01-27T11:37:40;102934.06;;;4.54;100.00
59170;BME280;52474;52.236;5.114;2023-01-27T11:40:17;102932.69;;;4.72;100.00
59170;BME280;52474;52.236;5.114;2023-01-27T11:42:45;102912.00;;;4.61;100.00
59170;BME280;52474;52.236;5.114;2023-01-27T11:45:17;102940.25;;;4.51;100.00
59170;BME280;52474;52.236;5.114;2023-01-27T11:47:46;102933.94;;;4.59;100.00
59170;BME280;52474;52.236;5.114;2023-01-27T11:50:16;102911.28;;;4.56;100.00
59170;BME280;52474;52.236;5.114;2023-01-27T11:53:09;102905.78;;;4.65;100.00
59170;BME280;52474;52.236;5.114;2023-01-27T11:55:39;102928.13;;;4.80;100.00
59170;BME280;52474;52.236;5.114;2023-01-27T11:58:20;102913.16;;;4.51;100.00
59170;BME280;52474;52.236;5.114;2023-01-27T12:00:51;102908.31;;;4.68;100.00
59170;BME280;52474;52.236;5.114;2023-01-27T12:05:54;102885.66;;;4.64;100.00
59170;BME280;52474;52.236;5.114;2023-01-27T12:08:38;102905.97;;;4.89;100.00
59170;BME280;52474;52.236;5.114;2023-01-27T12:11:20;102897.81;;;5.00;100.00
59170;BME280;52474;52.236;5.114;2023-01-27T12:13:59;102902.66;;;5.13;100.00
59170;BME280;52474;52.236;5.114;2023-01-27T12:19:22;102896.75;;;4.76;100.00
59170;BME280;52474;52.236;5.114;2023-01-27T12:21:51;102892.44;;;4.73;100.00
59170;BME280;52474;52.236;5.114;2023-01-27T12:24:40;102890.22;;;4.58;100.00
59170;BME280;52474;52.236;5.114;2023-01-27T12:27:18;102888.41;;;4.60;100.00
59170;BME280;52474;52.236;5.114;2023-01-27T12:30:07;102892.91;;;4.56;100.00
59170;BME280;52474;52.236;5.114;2023-01-27T12:32:40;102896.41;;;4.55;100.00
59170;BME280;52474;52.236;5.114;2023-01-27T12:35:33;102891.97;;;4.59;100.00
59170;BME280;52474;52.236;5.114;2023-01-27T12:38:03;102893.38;;;4.70;100.00
59170;BME280;52474;52.236;5.114;2023-01-27T12:40:30;102883.22;;;4.58;100.00
59170;BME280;52474;52.236;5.114;2023-01-27T12:45:26;102896.69;;;4.77;100.00
59170;BME280;52474;52.236;5.114;2023-01-27T12:48:19;102882.44;;;4.86;100.00
59170;BME280;52474;52.236;5.114;2023-01-27T12:53:22;102885.66;;;4.64;100.00
59170;BME280;52474;52.236;5.114;2023-01-27T12:55:56;102883.16;;;4.60;100.00
59170;BME280;52474;52.236;5.114;2023-01-27T12:58:37;102870.44;;;4.46;100.00
59170;BME280;52474;52.236;5.114;2023-01-27T13:01:31;102885.06;;;4.55;100.00
59170;BME280;52474;52.236;5.114;2023-01-27T13:04:16;102876.41;;;4.51;100.00
59170;BME280;52474;52.236;5.114;2023-01-27T13:06:53;102882.69;;;4.45;100.00
59170;BME280;52474;52.236;5.114;2023-01-27T13:09:26;102875.06;;;4.36;100.00
59170;BME280;52474;52.236;5.114;2023-01-27T13:12:04;102877.59;;;4.41;100.00
59170;BME280;52474;52.236;5.114;2023-01-27T13:14:39;102875.47;;;4.54;100.00
59170;BME280;52474;52.236;5.114;2023-01-27T13:23:09;102858.00;;;4.20;100.00
59170;BME280;52474;52.236;5.114;2023-01-27T13:26:04;102882.25;;;4.28;100.00
59170;BME280;52474;52.236;5.114;2023-01-27T13:37:08;102888.03;;;4.08;100.00
59170;BME280;52474;52.236;5.114;2023-01-27T13:45:05;102897.84;;;4.01;100.00
59170;BME280;52474;52.236;5.114;2023-01-27T13:47:46;102896.19;;;3.96;100.00
59170;BME280;52474;52.236;5.114;2023-01-27T13:50:21;102904.91;;;3.96;100.00
59170;BME280;52474;52.236;5.114;2023-01-27T13:52:54;102897.13;;;3.95;100.00
59170;BME280;52474;52.236;5.114;2023-01-27T13:58:42;102899.53;;;4.02;100.00
59170;BME280;52474;52.236;5.114;2023-01-27T14:09:30;102886.38;;;3.70;100.00
59170;BME280;52474;52.236;5.114;2023-01-27T14:12:12;102905.09;;;3.88;100.00
59170;BME280;52474;52.236;5.114;2023-01-27T14:15:07;102907.91;;;3.81;100.00
59170;BME280;52474;52.236;5.114;2023-01-27T14:25:53;102910.69;;;3.75;100.00
59170;BME280;52474;52.236;5.114;2023-01-27T14:28:51;102915.88;;;3.78;100.00
59170;BME280;52474;52.236;5.114;2023-01-27T14:45:15;102903.31;;;3.53;100.00
59170;BME280;52474;52.236;5.114;2023-01-27T14:47:52;102916.31;;;3.58;100.00
59170;BME280;52474;52.236;5.114;2023-01-27T14:53:14;102926.97;;;3.50;100.00
59170;BME280;52474;52.236;5.114;2023-01-27T14:56:09;102935.63;;;3.54;100.00